Observations for BURLINGTON INTL, VT (BTV)

KBTV 142354Z 32009KT 10SM CLR M11/M20 A2989 RMK AO2 SLP130 4/005 T11061200 11083 21111 51030
KBTV 142254Z 31009KT 10SM CLR M11/M19 A2987 RMK AO2 SLP121 T11061194
KBTV 142154Z 30010KT 10SM FEW035 M10/M20 A2984 RMK AO2 SLP111 T11001200 
KBTV 142054Z 30009KT 10SM FEW035 M09/M20 A2980 RMK AO2 SLP099 T10941200 53026   
KBTV 141954Z 29014G20KT 10SM FEW040 M08/M20 A2977 RMK AO2 SLP089 T10831200  
KBTV 141854Z 34008KT 10SM FEW030 M09/M18 A2974 RMK AO2 SLP079 T10941178 
KBTV 141754Z 36010KT 10SM FEW030 M10/M18 A2972 RMK AO2 SLP073 4/006 T11001178 11100 21144 53009 
KBTV 141654Z 02006KT 10SM FEW030 M11/M19 A2971 RMK AO2 SLP068 T11061194 
KBTV 141454Z 03008KT 10SM FEW100 M12/M18 A2970 RMK AO2 SLP063 T11221183 51026   
KBTV 141354Z 05004KT 10SM FEW030 SCT100 M14/M19 A2968 RMK AO2 SLP056 T11441189  
KBTV 141254Z 04006KT 10SM FEW030 SCT140 SCT200 M13/M18 A2964 RMK AO2 SLP046 T11331178   
KBTV 141154Z 02007KT 10SM BKN120 M12/M17 A2962 RMK AO2 SLP037 4/006 70001 T11221172 11117 21139 53024   
KBTV 141054Z 02004KT 10SM BKN030 OVC110 M12/M17 A2959 RMK AO2 SLP026 T11171167  
KBTV 140954Z 05003KT 10SM CLR M12/M16 A2955 RMK AO2 SLP014 T11221161
KBTV 140940Z 07003KT 10SM SCT026 SCT031 M12/M17 A2955 RMK AO2 T11171167
KBTV 140907Z 00000KT 10SM BKN029 M12/M17 A2955 RMK AO2 T11221167
KBTV 140854Z 00000KT 10SM SCT027 M12/M17 A2955 RMK AO2 SLP013 T11221167 50002   
KBTV 140754Z 00000KT 10SM CLR M12/M17 A2955 RMK AO2 SLP014 T11221167
KBTV 140654Z 00000KT 10SM CLR M13/M18 A2955 RMK AO2 SLP013 T11331178
KBTV 140554Z 19003KT 10SM CLR M13/M17 A2954 RMK AO2 SLP011 T11331172 11089 21139 51017  
KBTV 140454Z 32006KT 10SM CLR M11/M18 A2953 RMK AO2 SLP007 LAST T11111178 410501117 
KBTV 140354Z 31011KT 10SM CLR M11/M18 A2950 RMK AO2 SLP997 T11061183
KBTV 140254Z 30013G18KT 10SM FEW030 M10/M17 A2949 RMK AO2 SLP993 T11001172 50004
KBTV 140154Z 29012KT 10SM FEW030 M09/M16 A2950 RMK AO2 SLP995 T10891161 
KBTV 140054Z 28014G19KT 10SM FEW029 M09/M16 A2949 RMK AO2 SLP992 T10941161  
KBTV 132354Z 29013G20KT 10SM SCT031 M09/M16 A2948 RMK AO2 SLP988 4/006 T10941161 11089 21100 51019